sensor_id;sensor_type;location;lat;lon;timestamp;P1;durP1;ratioP1;P2;durP2;ratioP2
51298;SDS011;37382;45.192;9.790;2023-01-28T05:02:39;31.98;;;19.33;;
51298;SDS011;37382;45.192;9.790;2023-01-28T05:05:08;41.67;;;21.15;;
51298;SDS011;37382;45.192;9.790;2023-01-28T05:07:50;40.63;;;20.33;;
51298;SDS011;37382;45.192;9.790;2023-01-28T05:10:19;36.15;;;19.98;;
51298;SDS011;37382;45.192;9.790;2023-01-28T05:12:47;35.40;;;20.13;;
51298;SDS011;37382;45.192;9.790;2023-01-28T05:15:17;35.78;;;19.85;;
51298;SDS011;37382;45.192;9.790;2023-01-28T05:17:47;40.60;;;20.73;;
51298;SDS011;37382;45.192;9.790;2023-01-28T05:20:17;34.55;;;20.02;;
51298;SDS011;37382;45.192;9.790;2023-01-28T05:22:47;36.10;;;20.42;;
51298;SDS011;37382;45.192;9.790;2023-01-28T05:25:18;42.65;;;21.67;;
51298;SDS011;37382;45.192;9.790;2023-01-28T05:27:49;42.72;;;22.13;;
51298;SDS011;37382;45.192;9.790;2023-01-28T05:32:45;40.20;;;20.17;;
51298;SDS011;37382;45.192;9.790;2023-01-28T05:35:16;40.10;;;22.52;;
51298;SDS011;37382;45.192;9.790;2023-01-28T05:37:44;41.50;;;24.10;;
51298;SDS011;37382;45.192;9.790;2023-01-28T05:40:12;43.85;;;21.98;;
51298;SDS011;37382;45.192;9.790;2023-01-28T05:42:40;50.95;;;21.63;;
51298;SDS011;37382;45.192;9.790;2023-01-28T05:45:30;39.67;;;22.85;;
51298;SDS011;37382;45.192;9.790;2023-01-28T05:48:01;49.58;;;22.10;;
51298;SDS011;37382;45.192;9.790;2023-01-28T05:51:02;40.97;;;21.05;;
51298;SDS011;37382;45.192;9.790;2023-01-28T05:53:34;44.75;;;23.25;;
51298;SDS011;37382;45.192;9.790;2023-01-28T05:56:02;44.90;;;23.65;;
51298;SDS011;37382;45.192;9.790;2023-01-28T05:58:32;41.90;;;23.00;;
51298;SDS011;37382;45.192;9.790;2023-01-28T06:01:02;49.50;;;22.70;;
51298;SDS011;37382;45.192;9.790;2023-01-28T06:03:38;41.60;;;23.33;;
51298;SDS011;37382;45.192;9.790;2023-01-28T06:06:06;45.60;;;23.33;;
51298;SDS011;37382;45.192;9.790;2023-01-28T06:08:34;45.80;;;22.40;;
51298;SDS011;37382;45.192;9.790;2023-01-28T06:11:03;44.22;;;22.45;;
51298;SDS011;37382;45.192;9.790;2023-01-28T06:13:34;42.20;;;22.67;;
51298;SDS011;37382;45.192;9.790;2023-01-28T06:16:22;37.08;;;21.85;;
51298;SDS011;37382;45.192;9.790;2023-01-28T06:19:19;48.83;;;22.90;;
51298;SDS011;37382;45.192;9.790;2023-01-28T06:21:47;45.03;;;25.00;;
51298;SDS011;37382;45.192;9.790;2023-01-28T06:24:14;40.33;;;22.25;;
51298;SDS011;37382;45.192;9.790;2023-01-28T06:26:41;41.03;;;21.52;;
51298;SDS011;37382;45.192;9.790;2023-01-28T06:29:10;44.17;;;23.33;;
51298;SDS011;37382;45.192;9.790;2023-01-28T06:31:38;43.08;;;22.95;;
51298;SDS011;37382;45.192;9.790;2023-01-28T06:34:06;44.35;;;24.40;;
51298;SDS011;37382;45.192;9.790;2023-01-28T06:36:35;44.42;;;24.17;;
51298;SDS011;37382;45.192;9.790;2023-01-28T06:39:04;47.70;;;25.70;;
51298;SDS011;37382;45.192;9.790;2023-01-28T06:41:31;45.45;;;24.38;;
51298;SDS011;37382;45.192;9.790;2023-01-28T06:43:59;45.10;;;24.27;;
51298;SDS011;37382;45.192;9.790;2023-01-28T06:46:28;40.88;;;23.60;;
51298;SDS011;37382;45.192;9.790;2023-01-28T06:48:56;46.70;;;25.55;;
51298;SDS011;37382;45.192;9.790;2023-01-28T06:51:23;45.25;;;25.88;;
51298;SDS011;37382;45.192;9.790;2023-01-28T06:53:51;47.83;;;24.50;;
51298;SDS011;37382;45.192;9.790;2023-01-28T06:56:18;45.92;;;24.98;;
51298;SDS011;37382;45.192;9.790;2023-01-28T06:58:46;51.53;;;24.63;;
51298;SDS011;37382;45.192;9.790;2023-01-28T07:01:13;44.78;;;23.88;;
51298;SDS011;37382;45.192;9.790;2023-01-28T07:03:40;51.03;;;25.50;;
51298;SDS011;37382;45.192;9.790;2023-01-28T07:06:08;49.65;;;25.23;;
51298;SDS011;37382;45.192;9.790;2023-01-28T07:08:36;52.35;;;26.35;;
51298;SDS011;37382;45.192;9.790;2023-01-28T07:11:04;50.90;;;26.00;;
51298;SDS011;37382;45.192;9.790;2023-01-28T07:13:31;50.53;;;24.75;;
51298;SDS011;37382;45.192;9.790;2023-01-28T07:15:59;54.58;;;26.10;;
51298;SDS011;37382;45.192;9.790;2023-01-28T07:18:27;52.63;;;29.00;;
51298;SDS011;37382;45.192;9.790;2023-01-28T07:20:54;60.70;;;29.85;;
51298;SDS011;37382;45.192;9.790;2023-01-28T07:23:23;60.25;;;28.70;;
51298;SDS011;37382;45.192;9.790;2023-01-28T07:25:51;51.97;;;26.55;;
51298;SDS011;37382;45.192;9.790;2023-01-28T07:28:18;55.05;;;28.73;;
51298;SDS011;37382;45.192;9.790;2023-01-28T07:30:48;49.53;;;25.73;;
51298;SDS011;37382;45.192;9.790;2023-01-28T07:33:19;47.15;;;25.42;;
51298;SDS011;37382;45.192;9.790;2023-01-28T07:35:47;47.00;;;25.17;;
51298;SDS011;37382;45.192;9.790;2023-01-28T07:38:15;50.33;;;27.27;;
51298;SDS011;37382;45.192;9.790;2023-01-28T07:40:43;50.25;;;25.85;;
51298;SDS011;37382;45.192;9.790;2023-01-28T07:43:11;53.58;;;29.15;;
51298;SDS011;37382;45.192;9.790;2023-01-28T07:45:40;71.15;;;30.90;;
51298;SDS011;37382;45.192;9.790;2023-01-28T07:48:09;68.10;;;33.15;;
51298;SDS011;37382;45.192;9.790;2023-01-28T07:50:38;61.30;;;30.58;;
51298;SDS011;37382;45.192;9.790;2023-01-28T07:53:08;63.15;;;33.50;;
51298;SDS011;37382;45.192;9.790;2023-01-28T07:55:37;62.45;;;31.80;;
51298;SDS011;37382;45.192;9.790;2023-01-28T07:58:05;68.78;;;34.67;;
51298;SDS011;37382;45.192;9.790;2023-01-28T08:00:34;67.93;;;36.35;;
51298;SDS011;37382;45.192;9.790;2023-01-28T08:03:04;71.05;;;33.30;;
51298;SDS011;37382;45.192;9.790;2023-01-28T08:05:44;62.42;;;32.78;;
51298;SDS011;37382;45.192;9.790;2023-01-28T08:08:13;63.10;;;31.58;;
51298;SDS011;37382;45.192;9.790;2023-01-28T08:10:42;56.05;;;29.27;;
51298;SDS011;37382;45.192;9.790;2023-01-28T08:13:10;54.03;;;29.30;;
51298;SDS011;37382;45.192;9.790;2023-01-28T08:15:39;56.50;;;28.85;;
51298;SDS011;37382;45.192;9.790;2023-01-28T08:18:09;61.35;;;30.35;;
51298;SDS011;37382;45.192;9.790;2023-01-28T08:20:41;65.25;;;36.00;;
51298;SDS011;37382;45.192;9.790;2023-01-28T08:23:11;59.92;;;32.33;;
51298;SDS011;37382;45.192;9.790;2023-01-28T08:25:41;55.50;;;30.52;;
51298;SDS011;37382;45.192;9.790;2023-01-28T08:28:09;55.35;;;28.67;;
51298;SDS011;37382;45.192;9.790;2023-01-28T08:30:38;57.53;;;29.92;;
51298;SDS011;37382;45.192;9.790;2023-01-28T08:33:07;50.72;;;29.13;;
51298;SDS011;37382;45.192;9.790;2023-01-28T08:35:36;60.13;;;30.80;;
51298;SDS011;37382;45.192;9.790;2023-01-28T08:38:04;54.67;;;28.70;;
51298;SDS011;37382;45.192;9.790;2023-01-28T08:40:33;54.38;;;31.50;;
51298;SDS011;37382;45.192;9.790;2023-01-28T08:43:01;55.38;;;30.38;;
51298;SDS011;37382;45.192;9.790;2023-01-28T08:45:29;64.78;;;31.30;;
51298;SDS011;37382;45.192;9.790;2023-01-28T08:47:59;55.40;;;29.92;;
51298;SDS011;37382;45.192;9.790;2023-01-28T08:50:34;63.63;;;32.28;;
51298;SDS011;37382;45.192;9.790;2023-01-28T08:53:04;64.13;;;32.45;;
51298;SDS011;37382;45.192;9.790;2023-01-28T08:55:33;64.35;;;33.33;;
51298;SDS011;37382;45.192;9.790;2023-01-28T08:58:02;71.85;;;31.25;;
51298;SDS011;37382;45.192;9.790;2023-01-28T09:00:30;64.82;;;32.88;;
51298;SDS011;37382;45.192;9.790;2023-01-28T09:02:58;98.28;;;52.50;;
51298;SDS011;37382;45.192;9.790;2023-01-28T09:05:25;62.47;;;35.80;;
51298;SDS011;37382;45.192;9.790;2023-01-28T09:07:52;60.80;;;32.92;;
51298;SDS011;37382;45.192;9.790;2023-01-28T09:10:20;55.20;;;31.90;;
51298;SDS011;37382;45.192;9.790;2023-01-28T09:12:47;59.63;;;30.50;;
51298;SDS011;37382;45.192;9.790;2023-01-28T09:15:15;57.33;;;31.98;;
51298;SDS011;37382;45.192;9.790;2023-01-28T09:17:43;62.95;;;31.95;;
51298;SDS011;37382;45.192;9.790;2023-01-28T09:20:11;58.22;;;30.00;;
51298;SDS011;37382;45.192;9.790;2023-01-28T09:22:39;62.80;;;30.95;;
51298;SDS011;37382;45.192;9.790;2023-01-28T09:25:08;62.25;;;32.97;;
51298;SDS011;37382;45.192;9.790;2023-01-28T09:27:35;69.38;;;32.45;;
51298;SDS011;37382;45.192;9.790;2023-01-28T09:30:03;55.92;;;31.00;;
51298;SDS011;37382;45.192;9.790;2023-01-28T09:32:31;55.38;;;29.13;;
51298;SDS011;37382;45.192;9.790;2023-01-28T09:34:58;56.10;;;30.00;;
51298;SDS011;37382;45.192;9.790;2023-01-28T09:37:26;57.10;;;31.20;;
51298;SDS011;37382;45.192;9.790;2023-01-28T09:39:53;62.38;;;31.55;;
51298;SDS011;37382;45.192;9.790;2023-01-28T09:45:18;62.33;;;34.28;;
51298;SDS011;37382;45.192;9.790;2023-01-28T09:47:55;57.75;;;31.13;;
51298;SDS011;37382;45.192;9.790;2023-01-28T09:50:33;60.63;;;30.13;;
51298;SDS011;37382;45.192;9.790;2023-01-28T09:56:00;57.42;;;28.98;;
51298;SDS011;37382;45.192;9.790;2023-01-28T09:58:34;49.20;;;28.98;;
51298;SDS011;37382;45.192;9.790;2023-01-28T10:06:32;56.05;;;28.35;;
51298;SDS011;37382;45.192;9.790;2023-01-28T10:18:06;50.25;;;26.00;;
51298;SDS011;37382;45.192;9.790;2023-01-28T10:20:48;48.10;;;25.73;;
51298;SDS011;37382;45.192;9.790;2023-01-28T10:23:21;53.45;;;27.10;;
51298;SDS011;37382;45.192;9.790;2023-01-28T10:25:51;54.92;;;28.63;;
51298;SDS011;37382;45.192;9.790;2023-01-28T10:28:23;50.63;;;26.50;;
51298;SDS011;37382;45.192;9.790;2023-01-28T10:30:52;40.47;;;24.25;;
51298;SDS011;37382;45.192;9.790;2023-01-28T10:35:55;45.10;;;24.42;;
51298;SDS011;37382;45.192;9.790;2023-01-28T10:38:24;41.25;;;23.10;;
51298;SDS011;37382;45.192;9.790;2023-01-28T10:40:54;40.40;;;23.05;;
51298;SDS011;37382;45.192;9.790;2023-01-28T10:43:28;46.15;;;24.92;;
51298;SDS011;37382;45.192;9.790;2023-01-28T10:46:04;42.95;;;22.08;;
51298;SDS011;37382;45.192;9.790;2023-01-28T10:48:33;50.08;;;25.98;;
51298;SDS011;37382;45.192;9.790;2023-01-28T10:51:31;41.15;;;22.35;;
51298;SDS011;37382;45.192;9.790;2023-01-28T10:54:16;51.78;;;24.10;;
51298;SDS011;37382;45.192;9.790;2023-01-28T10:57:09;50.15;;;25.85;;
51298;SDS011;37382;45.192;9.790;2023-01-28T10:59:39;40.90;;;21.70;;
51298;SDS011;37382;45.192;9.790;2023-01-28T11:05:13;42.75;;;22.60;;
51298;SDS011;37382;45.192;9.790;2023-01-28T11:07:47;42.40;;;21.67;;
51298;SDS011;37382;45.192;9.790;2023-01-28T11:10:30;41.92;;;22.08;;
51298;SDS011;37382;45.192;9.790;2023-01-28T11:13:00;34.60;;;19.60;;
51298;SDS011;37382;45.192;9.790;2023-01-28T11:15:30;36.45;;;19.08;;
51298;SDS011;37382;45.192;9.790;2023-01-28T11:18:00;32.17;;;18.35;;
51298;SDS011;37382;45.192;9.790;2023-01-28T11:20:40;37.75;;;20.50;;
51298;SDS011;37382;45.192;9.790;2023-01-28T11:23:23;49.88;;;24.02;;
51298;SDS011;37382;45.192;9.790;2023-01-28T11:26:05;52.65;;;25.40;;
51298;SDS011;37382;45.192;9.790;2023-01-28T11:28:40;38.20;;;21.02;;
51298;SDS011;37382;45.192;9.790;2023-01-28T11:31:11;38.30;;;20.15;;
51298;SDS011;37382;45.192;9.790;2023-01-28T11:36:29;43.53;;;21.63;;
51298;SDS011;37382;45.192;9.790;2023-01-28T11:38:59;34.90;;;20.85;;
51298;SDS011;37382;45.192;9.790;2023-01-28T11:41:32;35.80;;;20.45;;
51298;SDS011;37382;45.192;9.790;2023-01-28T11:44:19;35.40;;;19.30;;
51298;SDS011;37382;45.192;9.790;2023-01-28T11:46:57;36.60;;;20.80;;
51298;SDS011;37382;45.192;9.790;2023-01-28T11:52:05;39.88;;;21.35;;
51298;SDS011;37382;45.192;9.790;2023-01-28T11:57:35;38.70;;;20.92;;
51298;SDS011;37382;45.192;9.790;2023-01-28T12:09:39;37.40;;;21.23;;
51298;SDS011;37382;45.192;9.790;2023-01-28T12:20:58;37.95;;;20.55;;
51298;SDS011;37382;45.192;9.790;2023-01-28T12:26:15;37.28;;;22.45;;
51298;SDS011;37382;45.192;9.790;2023-01-28T12:43:11;41.70;;;21.02;;
51298;SDS011;37382;45.192;9.790;2023-01-28T12:46:17;42.08;;;21.70;;
51298;SDS011;37382;45.192;9.790;2023-01-28T12:51:58;35.25;;;22.15;;
51298;SDS011;37382;45.192;9.790;2023-01-28T12:57:00;36.80;;;20.67;;
51298;SDS011;37382;45.192;9.790;2023-01-28T12:59:31;38.03;;;21.23;;
51298;SDS011;37382;45.192;9.790;2023-01-28T13:07:12;40.83;;;22.42;;
51298;SDS011;37382;45.192;9.790;2023-01-28T13:10:33;41.47;;;22.15;;
51298;SDS011;37382;45.192;9.790;2023-01-28T13:13:01;35.80;;;21.17;;
51298;SDS011;37382;45.192;9.790;2023-01-28T13:15:30;42.75;;;20.90;;
51298;SDS011;37382;45.192;9.790;2023-01-28T13:18:03;32.65;;;19.98;;
51298;SDS011;37382;45.192;9.790;2023-01-28T13:20:36;37.65;;;20.35;;
51298;SDS011;37382;45.192;9.790;2023-01-28T13:23:20;49.35;;;20.52;;
51298;SDS011;37382;45.192;9.790;2023-01-28T13:25:49;35.05;;;19.52;;
51298;SDS011;37382;45.192;9.790;2023-01-28T13:28:29;34.45;;;20.15;;
51298;SDS011;37382;45.192;9.790;2023-01-28T13:31:05;33.30;;;18.40;;
51298;SDS011;37382;45.192;9.790;2023-01-28T13:33:38;39.17;;;21.42;;
51298;SDS011;37382;45.192;9.790;2023-01-28T13:38:44;34.10;;;19.40;;
51298;SDS011;37382;45.192;9.790;2023-01-28T13:41:12;31.85;;;18.77;;
51298;SDS011;37382;45.192;9.790;2023-01-28T13:43:40;32.60;;;18.70;;
51298;SDS011;37382;45.192;9.790;2023-01-28T13:46:10;33.47;;;17.90;;
51298;SDS011;37382;45.192;9.790;2023-01-28T13:48:41;32.67;;;20.90;;
51298;SDS011;37382;45.192;9.790;2023-01-28T13:51:19;29.73;;;19.10;;
51298;SDS011;37382;45.192;9.790;2023-01-28T13:53:57;29.88;;;17.15;;
51298;SDS011;37382;45.192;9.790;2023-01-28T14:11:13;34.83;;;18.77;;
51298;SDS011;37382;45.192;9.790;2023-01-28T14:17:19;31.97;;;18.10;;
51298;SDS011;37382;45.192;9.790;2023-01-28T14:23:04;30.90;;;17.05;;
51298;SDS011;37382;45.192;9.790;2023-01-28T14:28:06;31.73;;;17.80;;
51298;SDS011;37382;45.192;9.790;2023-01-28T14:30:53;29.50;;;17.27;;
51298;SDS011;37382;45.192;9.790;2023-01-28T14:33:25;26.27;;;15.27;;
51298;SDS011;37382;45.192;9.790;2023-01-28T14:35:54;31.05;;;19.30;;
51298;SDS011;37382;45.192;9.790;2023-01-28T14:38:22;32.38;;;19.40;;
51298;SDS011;37382;45.192;9.790;2023-01-28T14:40:50;36.15;;;17.67;;
51298;SDS011;37382;45.192;9.790;2023-01-28T14:43:20;31.30;;;18.80;;
51298;SDS011;37382;45.192;9.790;2023-01-28T14:45:59;32.92;;;18.67;;
51298;SDS011;37382;45.192;9.790;2023-01-28T14:57:24;31.00;;;16.88;;
51298;SDS011;37382;45.192;9.790;2023-01-28T15:00:02;29.00;;;15.77;;
51298;SDS011;37382;45.192;9.790;2023-01-28T15:02:34;29.75;;;14.57;;
51298;SDS011;37382;45.192;9.790;2023-01-28T15:05:07;26.33;;;14.23;;
51298;SDS011;37382;45.192;9.790;2023-01-28T15:07:35;25.80;;;13.98;;
51298;SDS011;37382;45.192;9.790;2023-01-28T15:12:42;28.83;;;15.98;;
51298;SDS011;37382;45.192;9.790;2023-01-28T15:15:17;25.98;;;15.70;;
51298;SDS011;37382;45.192;9.790;2023-01-28T15:17:50;31.73;;;17.00;;
51298;SDS011;37382;45.192;9.790;2023-01-28T15:20:20;31.15;;;17.70;;
51298;SDS011;37382;45.192;9.790;2023-01-28T15:22:51;38.17;;;18.67;;
51298;SDS011;37382;45.192;9.790;2023-01-28T15:25:20;32.40;;;18.75;;
51298;SDS011;37382;45.192;9.790;2023-01-28T15:27:50;35.35;;;18.35;;
51298;SDS011;37382;45.192;9.790;2023-01-28T15:30:22;34.92;;;17.08;;
51298;SDS011;37382;45.192;9.790;2023-01-28T15:32:59;53.00;;;30.85;;
51298;SDS011;37382;45.192;9.790;2023-01-28T15:35:29;37.00;;;20.38;;
51298;SDS011;37382;45.192;9.790;2023-01-28T15:37:57;36.38;;;20.95;;
51298;SDS011;37382;45.192;9.790;2023-01-28T15:40:25;39.67;;;22.77;;
51298;SDS011;37382;45.192;9.790;2023-01-28T15:42:56;38.08;;;21.42;;
51298;SDS011;37382;45.192;9.790;2023-01-28T15:45:24;37.13;;;21.70;;
51298;SDS011;37382;45.192;9.790;2023-01-28T15:48:01;45.35;;;22.20;;
51298;SDS011;37382;45.192;9.790;2023-01-28T15:50:30;39.13;;;23.27;;
51298;SDS011;37382;45.192;9.790;2023-01-28T15:52:57;48.92;;;26.40;;
51298;SDS011;37382;45.192;9.790;2023-01-28T16:00:45;38.90;;;21.85;;
51298;SDS011;37382;45.192;9.790;2023-01-28T16:03:18;38.78;;;22.08;;
51298;SDS011;37382;45.192;9.790;2023-01-28T16:05:55;40.38;;;22.05;;
51298;SDS011;37382;45.192;9.790;2023-01-28T16:08:29;40.55;;;20.02;;
51298;SDS011;37382;45.192;9.790;2023-01-28T16:11:06;33.30;;;20.05;;
51298;SDS011;37382;45.192;9.790;2023-01-28T16:13:35;34.20;;;19.65;;
51298;SDS011;37382;45.192;9.790;2023-01-28T16:16:09;37.92;;;21.83;;
51298;SDS011;37382;45.192;9.790;2023-01-28T16:18:41;43.10;;;21.73;;
51298;SDS011;37382;45.192;9.790;2023-01-28T16:21:18;38.65;;;21.88;;
51298;SDS011;37382;45.192;9.790;2023-01-28T16:23:49;38.80;;;21.35;;
51298;SDS011;37382;45.192;9.790;2023-01-28T16:26:26;39.05;;;22.38;;
51298;SDS011;37382;45.192;9.790;2023-01-28T16:28:56;40.58;;;24.70;;
51298;SDS011;37382;45.192;9.790;2023-01-28T16:31:23;38.67;;;23.00;;
51298;SDS011;37382;45.192;9.790;2023-01-28T16:33:51;40.45;;;23.35;;
51298;SDS011;37382;45.192;9.790;2023-01-28T16:36:18;46.08;;;24.35;;
51298;SDS011;37382;45.192;9.790;2023-01-28T16:38:45;50.60;;;25.40;;
51298;SDS011;37382;45.192;9.790;2023-01-28T16:41:14;47.50;;;25.90;;
51298;SDS011;37382;45.192;9.790;2023-01-28T16:43:51;48.80;;;25.90;;
51298;SDS011;37382;45.192;9.790;2023-01-28T16:46:20;46.75;;;25.67;;
51298;SDS011;37382;45.192;9.790;2023-01-28T16:48:47;47.45;;;26.17;;
51298;SDS011;37382;45.192;9.790;2023-01-28T16:51:15;46.22;;;24.33;;
51298;SDS011;37382;45.192;9.790;2023-01-28T16:53:44;43.63;;;23.30;;
51298;SDS011;37382;45.192;9.790;2023-01-28T16:56:15;46.00;;;24.10;;
51298;SDS011;37382;45.192;9.790;2023-01-28T16:59:04;51.38;;;27.40;;
51298;SDS011;37382;45.192;9.790;2023-01-28T17:01:31;72.78;;;35.28;;
51298;SDS011;37382;45.192;9.790;2023-01-28T17:03:59;65.72;;;32.53;;
51298;SDS011;37382;45.192;9.790;2023-01-28T17:06:27;61.30;;;31.33;;
51298;SDS011;37382;45.192;9.790;2023-01-28T17:08:54;59.60;;;35.25;;
51298;SDS011;37382;45.192;9.790;2023-01-28T17:11:22;53.58;;;29.75;;
51298;SDS011;37382;45.192;9.790;2023-01-28T17:13:49;54.15;;;27.27;;
51298;SDS011;37382;45.192;9.790;2023-01-28T17:16:17;57.03;;;30.83;;
51298;SDS011;37382;45.192;9.790;2023-01-28T17:18:48;66.45;;;33.85;;
51298;SDS011;37382;45.192;9.790;2023-01-28T17:21:17;65.68;;;34.28;;
51298;SDS011;37382;45.192;9.790;2023-01-28T17:23:44;72.65;;;37.70;;
51298;SDS011;37382;45.192;9.790;2023-01-28T17:26:13;73.25;;;33.55;;
51298;SDS011;37382;45.192;9.790;2023-01-28T17:28:42;58.40;;;29.98;;
51298;SDS011;37382;45.192;9.790;2023-01-28T17:31:11;56.22;;;28.77;;
51298;SDS011;37382;45.192;9.790;2023-01-28T17:33:40;45.70;;;25.40;;
51298;SDS011;37382;45.192;9.790;2023-01-28T17:36:09;47.67;;;25.75;;
51298;SDS011;37382;45.192;9.790;2023-01-28T17:38:37;47.15;;;25.13;;
51298;SDS011;37382;45.192;9.790;2023-01-28T17:41:05;60.25;;;32.47;;
51298;SDS011;37382;45.192;9.790;2023-01-28T17:43:34;63.50;;;34.05;;
51298;SDS011;37382;45.192;9.790;2023-01-28T17:46:09;78.72;;;43.65;;
51298;SDS011;37382;45.192;9.790;2023-01-28T17:48:42;80.03;;;43.05;;
51298;SDS011;37382;45.192;9.790;2023-01-28T17:51:13;80.33;;;45.30;;
51298;SDS011;37382;45.192;9.790;2023-01-28T17:53:46;87.30;;;45.97;;
51298;SDS011;37382;45.192;9.790;2023-01-28T17:56:19;85.57;;;48.13;;
51298;SDS011;37382;45.192;9.790;2023-01-28T17:58:53;87.18;;;50.65;;
51298;SDS011;37382;45.192;9.790;2023-01-28T18:01:21;106.60;;;59.63;;
51298;SDS011;37382;45.192;9.790;2023-01-28T18:03:50;111.03;;;63.47;;
51298;SDS011;37382;45.192;9.790;2023-01-28T18:06:17;127.60;;;75.85;;
51298;SDS011;37382;45.192;9.790;2023-01-28T18:08:45;130.15;;;74.32;;
51298;SDS011;37382;45.192;9.790;2023-01-28T18:11:14;139.27;;;81.75;;
51298;SDS011;37382;45.192;9.790;2023-01-28T18:13:42;149.25;;;82.07;;
51298;SDS011;37382;45.192;9.790;2023-01-28T18:16:11;149.57;;;89.20;;
51298;SDS011;37382;45.192;9.790;2023-01-28T18:18:42;181.10;;;97.60;;
51298;SDS011;37382;45.192;9.790;2023-01-28T18:21:21;164.75;;;87.07;;
51298;SDS011;37382;45.192;9.790;2023-01-28T18:24:13;182.05;;;91.28;;
51298;SDS011;37382;45.192;9.790;2023-01-28T18:26:40;167.85;;;87.70;;
51298;SDS011;37382;45.192;9.790;2023-01-28T18:29:08;167.48;;;84.80;;
51298;SDS011;37382;45.192;9.790;2023-01-28T18:31:35;160.85;;;83.80;;
51298;SDS011;37382;45.192;9.790;2023-01-28T18:34:03;133.40;;;74.22;;
51298;SDS011;37382;45.192;9.790;2023-01-28T18:36:30;124.68;;;70.88;;
51298;SDS011;37382;45.192;9.790;2023-01-28T18:38:57;121.68;;;63.03;;
51298;SDS011;37382;45.192;9.790;2023-01-28T18:41:25;108.75;;;60.03;;
51298;SDS011;37382;45.192;9.790;2023-01-28T18:43:52;108.35;;;56.38;;
51298;SDS011;37382;45.192;9.790;2023-01-28T18:46:20;105.70;;;58.95;;
51298;SDS011;37382;45.192;9.790;2023-01-28T18:48:47;117.50;;;58.05;;
51298;SDS011;37382;45.192;9.790;2023-01-28T18:51:15;115.80;;;60.22;;
51298;SDS011;37382;45.192;9.790;2023-01-28T18:53:57;89.07;;;45.15;;
51298;SDS011;37382;45.192;9.790;2023-01-28T18:56:26;76.30;;;37.42;;
51298;SDS011;37382;45.192;9.790;2023-01-28T18:58:55;71.57;;;33.13;;
51298;SDS011;37382;45.192;9.790;2023-01-28T19:01:27;57.65;;;32.40;;
51298;SDS011;37382;45.192;9.790;2023-01-28T19:03:55;44.20;;;22.65;;
51298;SDS011;37382;45.192;9.790;2023-01-28T19:06:25;43.22;;;21.63;;
51298;SDS011;37382;45.192;9.790;2023-01-28T19:08:54;39.05;;;21.30;;
51298;SDS011;37382;45.192;9.790;2023-01-28T19:11:24;37.38;;;21.20;;
51298;SDS011;37382;45.192;9.790;2023-01-28T19:13:52;90.78;;;31.02;;
51298;SDS011;37382;45.192;9.790;2023-01-28T19:16:20;150.73;;;46.30;;
51298;SDS011;37382;45.192;9.790;2023-01-28T19:18:58;113.63;;;32.55;;
51298;SDS011;37382;45.192;9.790;2023-01-28T19:21:27;134.25;;;41.83;;
51298;SDS011;37382;45.192;9.790;2023-01-28T19:23:57;147.98;;;45.08;;
51298;SDS011;37382;45.192;9.790;2023-01-28T19:26:26;136.70;;;39.45;;
51298;SDS011;37382;45.192;9.790;2023-01-28T19:28:55;139.38;;;44.70;;
51298;SDS011;37382;45.192;9.790;2023-01-28T19:31:23;84.55;;;31.42;;
51298;SDS011;37382;45.192;9.790;2023-01-28T19:33:55;80.82;;;30.90;;
51298;SDS011;37382;45.192;9.790;2023-01-28T19:36:24;85.15;;;35.80;;
51298;SDS011;37382;45.192;9.790;2023-01-28T19:38:57;74.38;;;29.70;;
51298;SDS011;37382;45.192;9.790;2023-01-28T19:41:29;69.85;;;28.10;;
51298;SDS011;37382;45.192;9.790;2023-01-28T19:43:56;78.22;;;29.25;;
51298;SDS011;37382;45.192;9.790;2023-01-28T19:46:24;61.20;;;26.52;;
51298;SDS011;37382;45.192;9.790;2023-01-28T19:48:52;56.42;;;25.75;;
51298;SDS011;37382;45.192;9.790;2023-01-28T19:51:20;56.35;;;25.42;;
51298;SDS011;37382;45.192;9.790;2023-01-28T19:53:49;57.78;;;28.48;;
51298;SDS011;37382;45.192;9.790;2023-01-28T19:56:17;64.68;;;31.80;;
51298;SDS011;37382;45.192;9.790;2023-01-28T19:58:47;57.40;;;30.35;;
51298;SDS011;37382;45.192;9.790;2023-01-28T20:01:18;51.60;;;28.35;;
51298;SDS011;37382;45.192;9.790;2023-01-28T20:03:54;63.28;;;33.72;;
51298;SDS011;37382;45.192;9.790;2023-01-28T20:06:25;56.33;;;28.00;;
51298;SDS011;37382;45.192;9.790;2023-01-28T20:08:59;52.28;;;28.05;;
51298;SDS011;37382;45.192;9.790;2023-01-28T20:11:31;55.55;;;29.55;;
51298;SDS011;37382;45.192;9.790;2023-01-28T20:13:59;65.90;;;31.15;;
51298;SDS011;37382;45.192;9.790;2023-01-28T20:16:28;85.55;;;40.67;;
51298;SDS011;37382;45.192;9.790;2023-01-28T20:19:07;87.20;;;45.05;;
51298;SDS011;37382;45.192;9.790;2023-01-28T20:21:39;84.40;;;41.20;;
51298;SDS011;37382;45.192;9.790;2023-01-28T20:24:08;72.13;;;38.95;;
51298;SDS011;37382;45.192;9.790;2023-01-28T20:26:38;66.25;;;33.10;;
51298;SDS011;37382;45.192;9.790;2023-01-28T20:29:13;60.42;;;31.20;;
51298;SDS011;37382;45.192;9.790;2023-01-28T20:31:44;70.82;;;35.22;;
51298;SDS011;37382;45.192;9.790;2023-01-28T20:34:27;52.92;;;26.90;;
51298;SDS011;37382;45.192;9.790;2023-01-28T20:36:54;54.30;;;25.73;;
51298;SDS011;37382;45.192;9.790;2023-01-28T20:39:22;40.55;;;23.60;;
51298;SDS011;37382;45.192;9.790;2023-01-28T20:41:49;45.20;;;23.92;;
51298;SDS011;37382;45.192;9.790;2023-01-28T20:44:17;47.08;;;23.10;;
51298;SDS011;37382;45.192;9.790;2023-01-28T20:46:45;52.33;;;24.83;;
51298;SDS011;37382;45.192;9.790;2023-01-28T20:49:12;54.35;;;28.08;;
51298;SDS011;37382;45.192;9.790;2023-01-28T20:51:39;56.15;;;28.85;;
51298;SDS011;37382;45.192;9.790;2023-01-28T20:54:08;63.08;;;33.90;;
51298;SDS011;37382;45.192;9.790;2023-01-28T20:56:36;60.58;;;34.65;;
51298;SDS011;37382;45.192;9.790;2023-01-28T20:59:04;61.22;;;29.70;;
51298;SDS011;37382;45.192;9.790;2023-01-28T21:01:33;54.05;;;24.77;;
51298;SDS011;37382;45.192;9.790;2023-01-28T21:04:02;42.03;;;23.55;;
51298;SDS011;37382;45.192;9.790;2023-01-28T21:06:32;39.13;;;22.45;;
51298;SDS011;37382;45.192;9.790;2023-01-28T21:08:59;43.15;;;23.85;;
51298;SDS011;37382;45.192;9.790;2023-01-28T21:11:27;44.25;;;25.35;;
51298;SDS011;37382;45.192;9.790;2023-01-28T21:13:55;71.22;;;34.58;;
51298;SDS011;37382;45.192;9.790;2023-01-28T21:16:23;66.00;;;35.20;;
51298;SDS011;37382;45.192;9.790;2023-01-28T21:18:51;68.82;;;38.75;;
51298;SDS011;37382;45.192;9.790;2023-01-28T21:21:23;81.80;;;44.00;;
51298;SDS011;37382;45.192;9.790;2023-01-28T21:23:52;83.47;;;44.25;;
51298;SDS011;37382;45.192;9.790;2023-01-28T21:26:22;77.75;;;42.38;;
51298;SDS011;37382;45.192;9.790;2023-01-28T21:28:50;88.03;;;44.30;;
51298;SDS011;37382;45.192;9.790;2023-01-28T21:31:20;85.25;;;41.60;;
51298;SDS011;37382;45.192;9.790;2023-01-28T21:33:49;78.57;;;39.55;;
51298;SDS011;37382;45.192;9.790;2023-01-28T21:36:18;81.78;;;38.17;;
51298;SDS011;37382;45.192;9.790;2023-01-28T21:38:56;73.00;;;37.42;;
51298;SDS011;37382;45.192;9.790;2023-01-28T21:41:25;66.55;;;35.15;;
51298;SDS011;37382;45.192;9.790;2023-01-28T21:43:54;65.78;;;35.25;;
51298;SDS011;37382;45.192;9.790;2023-01-28T21:46:24;65.60;;;33.63;;
51298;SDS011;37382;45.192;9.790;2023-01-28T21:48:54;63.40;;;33.70;;
51298;SDS011;37382;45.192;9.790;2023-01-28T21:51:27;56.08;;;31.60;;